createdAt,value
2016-09-28T03:00:58.403Z,22.49
2016-09-28T03:01:24.036Z,22.46
2016-09-28T03:01:49.609Z,22.41
2016-09-28T03:02:15.166Z,22.47
2016-09-28T03:02:40.729Z,22.47
2016-09-28T03:03:06.290Z,22.47
2016-09-28T03:03:31.922Z,22.5
2016-09-28T03:03:57.505Z,22.47
2016-09-28T03:04:23.071Z,22.52
2016-09-28T03:04:48.638Z,22.47
2016-09-28T03:05:14.282Z,22.46
2016-09-28T03:05:39.840Z,22.52
2016-09-28T03:06:05.411Z,22.46
2016-09-28T03:06:30.979Z,22.47
2016-09-28T03:06:56.576Z,22.43
2016-09-28T03:07:22.139Z,22.44
2016-09-28T03:07:47.751Z,22.39
2016-09-28T03:08:13.323Z,22.43
2016-09-28T03:08:38.886Z,22.5
2016-09-28T03:09:04.525Z,22.54
2016-09-28T03:09:30.090Z,22.47
2016-09-28T03:09:55.651Z,22.47
2016-09-28T03:10:21.239Z,22.53
2016-09-28T03:10:46.843Z,22.47
2016-09-28T03:11:12.406Z,22.52
2016-09-28T03:11:38.042Z,22.49
2016-09-28T03:12:03.644Z,22.47
2016-09-28T03:12:29.193Z,22.49
2016-09-28T03:12:54.848Z,22.46
2016-09-28T03:13:20.486Z,22.5
2016-09-28T03:13:46.033Z,22.46
2016-09-28T03:14:11.592Z,22.44
2016-09-28T03:14:37.256Z,22.49
2016-09-28T03:15:02.804Z,22.44
2016-09-28T03:15:28.374Z,22.47
2016-09-28T03:15:53.923Z,22.49
2016-09-28T03:16:19.456Z,22.49
2016-09-28T03:16:45.041Z,22.47
2016-09-28T03:17:10.631Z,22.44
2016-09-28T03:17:36.213Z,22.5
2016-09-28T03:18:01.781Z,22.47
2016-09-28T03:18:27.382Z,22.47
2016-09-28T03:18:52.956Z,22.39
2016-09-28T03:19:18.531Z,22.49
2016-09-28T03:19:44.111Z,22.47
2016-09-28T03:20:09.686Z,22.41
2016-09-28T03:20:35.256Z,22.44
2016-09-28T03:21:00.816Z,22.43
2016-09-28T03:21:26.358Z,22.44
2016-09-28T03:21:51.882Z,22.44
2016-09-28T03:22:17.432Z,22.49
2016-09-28T03:22:43.027Z,22.46
2016-09-28T03:23:08.566Z,22.49
2016-09-28T03:23:34.122Z,22.37
2016-09-28T03:23:59.689Z,22.44
2016-09-28T03:24:25.368Z,22.44
2016-09-28T03:24:50.942Z,22.47
2016-09-28T03:25:16.511Z,22.49
2016-09-28T03:25:42.236Z,22.44
2016-09-28T03:26:33.397Z,22.46
2016-09-28T03:26:58.964Z,22.47
2016-09-28T03:27:24.582Z,22.44
2016-09-28T03:27:50.162Z,22.43
2016-09-28T03:28:15.704Z,22.49
2016-09-28T03:28:41.363Z,22.43
2016-09-28T03:29:06.937Z,22.5
2016-09-28T03:29:32.498Z,22.5
2016-09-28T03:29:58.074Z,22.44
2016-09-28T03:30:23.659Z,22.47
2016-09-28T03:30:49.261Z,22.49
2016-09-28T03:31:14.826Z,22.43
2016-09-28T03:31:40.397Z,22.44
2016-09-28T03:32:05.937Z,22.5
2016-09-28T03:32:31.489Z,22.47
2016-09-28T03:32:57.045Z,22.44
2016-09-28T03:33:22.651Z,22.46
2016-09-28T03:33:48.224Z,22.44
2016-09-28T03:34:13.786Z,22.43
2016-09-28T03:34:39.336Z,22.47
2016-09-28T03:35:05.190Z,22.43
2016-09-28T03:35:30.770Z,22.39
2016-09-28T03:35:56.333Z,22.41
2016-09-28T03:36:21.860Z,22.44
2016-09-28T03:36:47.426Z,22.44
2016-09-28T03:37:12.997Z,22.39
2016-09-28T03:37:38.567Z,22.46
2016-09-28T03:38:04.101Z,22.41
2016-09-28T03:38:29.653Z,22.43
2016-09-28T03:38:55.211Z,22.37
2016-09-28T03:39:20.757Z,22.43
2016-09-28T03:39:46.308Z,22.43
2016-09-28T03:40:11.843Z,22.46
2016-09-28T03:40:37.393Z,22.47
2016-09-28T03:41:02.932Z,22.43
2016-09-28T03:41:28.500Z,22.43
2016-09-28T03:41:54.052Z,22.43
2016-09-28T03:42:19.650Z,22.46
2016-09-28T03:42:45.214Z,22.43
2016-09-28T03:43:11.736Z,22.46
2016-09-28T03:43:37.310Z,22.47
2016-09-28T03:44:02.880Z,22.41
2016-09-28T03:44:28.451Z,22.38
2016-09-28T03:44:54.046Z,22.39
2016-09-28T03:45:19.642Z,22.47
2016-09-28T03:45:45.199Z,22.37
2016-09-28T03:46:10.751Z,22.43
2016-09-28T03:46:36.455Z,22.38
2016-09-28T03:47:02.037Z,22.43
2016-09-28T04:05:28.234Z,22.43
2016-09-28T04:05:53.827Z,22.31
2016-09-28T04:06:19.383Z,22.32
2016-09-28T04:06:45.038Z,22.38
2016-09-28T04:07:10.582Z,22.28
2016-09-28T04:07:36.130Z,22.39
2016-09-28T04:08:01.708Z,22.29
2016-09-28T04:08:27.259Z,22.28
2016-09-28T04:08:52.823Z,22.32
2016-09-28T04:09:18.402Z,22.35
2016-09-28T04:09:43.991Z,22.27
2016-09-28T04:10:09.551Z,22.19
2016-09-28T04:10:35.108Z,22.31
2016-09-28T04:11:00.680Z,22.27
2016-09-28T04:11:26.239Z,22.27
2016-09-28T04:11:51.811Z,22.27
2016-09-28T04:12:17.379Z,22.19
2016-09-28T04:12:42.948Z,22.27
2016-09-28T04:13:08.516Z,22.23
2016-09-28T04:13:34.082Z,22.22
2016-09-28T04:13:59.662Z,22.31
2016-09-28T04:14:25.216Z,22.28
2016-09-28T04:14:50.791Z,22.28
2016-09-28T04:15:16.354Z,22.25
2016-09-28T04:15:41.998Z,22.34
2016-09-28T04:16:07.570Z,22.23
2016-09-28T04:16:33.184Z,22.23
2016-09-28T04:16:58.780Z,22.25
2016-09-28T04:17:24.351Z,22.31
2016-09-28T04:17:49.913Z,22.27
2016-09-28T04:18:15.506Z,22.27
2016-09-28T04:18:41.060Z,22.28
2016-09-28T04:19:06.620Z,22.27
2016-09-28T04:19:32.172Z,22.27
2016-09-28T04:19:57.752Z,22.29
2016-09-28T04:20:23.332Z,22.28
2016-09-28T04:20:48.912Z,22.23
2016-09-28T04:21:14.472Z,22.2
2016-09-28T04:21:40.031Z,22.28
2016-09-28T04:22:05.572Z,22.23
2016-09-28T04:22:31.154Z,22.25
2016-09-28T04:22:56.759Z,22.28
2016-09-28T04:23:22.313Z,22.23
2016-09-28T04:23:47.873Z,22.31
2016-09-28T04:24:13.524Z,22.25
2016-09-28T04:24:39.102Z,22.25
2016-09-28T04:25:04.669Z,22.28
2016-09-28T04:25:30.220Z,22.28
2016-09-28T04:25:55.777Z,22.22
2016-09-28T04:26:21.353Z,22.27
2016-09-28T04:26:46.916Z,22.23
2016-09-28T04:27:12.480Z,22.23
2016-09-28T04:27:38.060Z,22.23
2016-09-28T04:28:03.646Z,22.27
2016-09-28T04:28:29.242Z,22.23
2016-09-28T04:28:54.814Z,22.29
2016-09-28T04:29:20.380Z,22.29
2016-09-28T04:29:45.957Z,22.27
2016-09-28T04:30:11.564Z,22.28
2016-09-28T04:30:37.250Z,22.25
2016-09-28T04:31:02.822Z,22.23
2016-09-28T04:31:28.401Z,22.25
2016-09-28T04:32:21.674Z,22.25
2016-09-28T04:32:47.236Z,22.19
2016-09-28T04:33:12.812Z,22.27
2016-09-28T04:33:38.372Z,22.23
2016-09-28T04:34:03.938Z,22.27
2016-09-28T04:34:29.511Z,22.27
2016-09-28T04:34:55.081Z,22.25
2016-09-28T04:35:53.343Z,22.29
2016-09-28T04:36:18.892Z,22.31
2016-09-28T04:36:44.475Z,22.25
2016-09-28T04:37:10.105Z,22.22
2016-09-28T04:37:35.671Z,22.31
2016-09-28T04:38:01.233Z,22.25
2016-09-28T04:38:49.106Z,22.27
2016-09-28T04:39:36.943Z,22.28
2016-09-28T04:40:02.513Z,22.22
2016-09-28T04:40:28.078Z,22.16
2016-09-28T04:40:53.650Z,22.32
2016-09-28T04:41:19.233Z,22.28
2016-09-28T04:41:44.873Z,22.28
2016-09-28T04:42:48.101Z,22.25
2016-09-28T04:43:13.669Z,22.27
2016-09-28T04:43:39.226Z,22.22
2016-09-28T04:44:04.779Z,22.25
2016-09-28T04:44:30.463Z,22.22
2016-09-28T04:44:56.073Z,22.27
2016-09-28T04:45:21.637Z,22.27
2016-09-28T04:45:47.192Z,22.31
2016-09-28T04:46:12.742Z,22.16
2016-09-28T04:46:38.314Z,22.25
2016-09-28T04:47:03.883Z,22.29
2016-09-28T04:47:29.443Z,22.25
2016-09-28T04:47:55.015Z,22.2
2016-09-28T04:48:20.561Z,22.31
2016-09-28T04:48:46.135Z,22.31
2016-09-28T04:49:11.708Z,22.28
2016-09-28T04:49:37.292Z,22.25
2016-09-28T04:50:02.879Z,22.27
2016-09-28T04:50:28.442Z,22.22
2016-09-28T04:50:54.015Z,22.14
2016-09-28T04:51:19.582Z,22.31
2016-09-28T04:52:22.816Z,22.19
2016-09-28T04:52:48.381Z,22.17
2016-09-28T04:53:13.938Z,22.23
2016-09-28T04:53:39.501Z,22.16
2016-09-28T04:54:05.056Z,22.17
2016-09-28T04:54:30.704Z,22.17
2016-09-28T04:54:56.252Z,22.2
2016-09-28T04:55:21.886Z,22.23
2016-09-28T04:55:48.097Z,22.12
2016-09-28T04:56:13.659Z,22.2
2016-09-28T04:56:39.263Z,22.2
2016-09-28T04:57:04.825Z,22.14
2016-09-28T04:57:30.405Z,22.14
2016-09-28T04:57:55.976Z,22.14
2016-09-28T04:58:21.595Z,22.09
2016-09-28T04:58:47.145Z,22.16
2016-09-28T04:59:12.704Z,22.19
2016-09-28T04:59:38.238Z,22.09
2016-09-28T05:00:03.792Z,22.14
2016-09-28T05:00:29.431Z,22.09
2016-09-28T05:00:55.014Z,22.12
2016-09-28T05:01:20.573Z,22.2
2016-09-28T05:01:46.229Z,22.16
2016-09-28T05:02:11.785Z,22.16
2016-09-28T05:02:37.359Z,22.19
2016-09-28T05:03:02.920Z,22.16
2016-09-28T05:03:28.534Z,22.14
2016-09-28T05:03:54.097Z,22.13
2016-09-28T05:04:19.679Z,22.12
2016-09-28T05:04:45.221Z,22.07
2016-09-28T05:05:10.806Z,22.17
2016-09-28T05:05:36.399Z,22.04
2016-09-28T05:06:01.970Z,22.1
2016-09-28T05:06:27.544Z,22.07
2016-09-28T05:06:53.171Z,22.1
2016-09-28T05:07:18.803Z,22.16
2016-09-28T05:07:44.379Z,22.12
2016-09-28T05:08:09.955Z,22.12
2016-09-28T05:08:35.612Z,22.09
2016-09-28T05:09:01.202Z,22.12
2016-09-28T05:09:26.821Z,22.12
2016-09-28T05:09:52.412Z,22.09
2016-09-28T05:10:18.010Z,22.02
2016-09-28T05:10:43.581Z,22.02
2016-09-28T05:11:09.218Z,22.09
2016-09-28T05:11:34.823Z,22.02
2016-09-28T05:12:00.403Z,21.95
2016-09-28T05:12:26.062Z,22.07
2016-09-28T05:12:51.636Z,21.98
2016-09-28T05:13:17.202Z,22.04
2016-09-28T05:13:42.792Z,22.02
2016-09-28T05:14:08.462Z,22.04
2016-09-28T05:14:34.036Z,22.1
2016-09-28T05:14:59.599Z,22.07
2016-09-28T05:15:25.177Z,22.04
2016-09-28T05:15:50.798Z,22.02
2016-09-28T05:16:16.353Z,21.99
2016-09-28T05:16:42.049Z,21.98
2016-09-28T05:17:07.622Z,21.97
2016-09-28T05:17:33.170Z,21.99
2016-09-28T05:17:58.798Z,21.97
2016-09-28T05:18:24.373Z,21.91
2016-09-28T05:18:49.977Z,21.98
2016-09-28T05:19:15.538Z,21.97
2016-09-28T05:20:56.354Z,21.97
2016-09-28T05:21:21.938Z,21.97
2016-09-28T05:21:47.513Z,21.94
2016-09-28T05:22:13.089Z,21.99
2016-09-28T05:22:38.665Z,21.99
2016-09-28T05:23:04.222Z,21.9
2016-09-28T05:23:29.847Z,21.99
2016-09-28T05:23:55.393Z,21.91
2016-09-28T05:24:20.940Z,21.95
2016-09-28T05:24:46.485Z,21.98
2016-09-28T05:25:12.111Z,21.95
2016-09-28T05:25:37.646Z,21.99
2016-09-28T05:26:25.829Z,21.88
2016-09-28T05:26:51.398Z,21.98
2016-09-28T05:27:16.968Z,21.94
2016-09-28T05:27:42.520Z,21.91
2016-09-28T05:28:08.114Z,21.91
2016-09-28T05:28:33.732Z,21.92
2016-09-28T05:28:59.291Z,21.94
2016-09-28T05:29:24.868Z,21.88
2016-09-28T05:29:50.562Z,21.95
2016-09-28T05:30:16.118Z,21.94
2016-09-28T05:30:41.668Z,21.97
2016-09-28T05:31:07.231Z,21.98
2016-09-28T05:32:15.548Z,21.94
2016-09-28T05:32:41.108Z,21.9
2016-09-28T05:33:06.709Z,21.91
2016-09-28T05:33:32.275Z,21.82
2016-09-28T05:33:57.852Z,21.94
2016-09-28T05:34:23.412Z,21.94
2016-09-28T05:34:49.032Z,21.92
2016-09-28T05:35:14.599Z,21.91
2016-09-28T05:35:40.152Z,21.91
2016-09-28T05:36:05.707Z,21.95
2016-09-28T05:36:31.281Z,21.94
2016-09-28T05:36:56.853Z,21.94
2016-09-28T05:37:22.411Z,21.99
2016-09-28T05:37:47.969Z,21.98
2016-09-28T05:38:13.552Z,21.98
2016-09-28T05:38:39.113Z,21.92
2016-09-28T05:39:04.679Z,21.99
2016-09-28T05:39:30.268Z,21.98
2016-09-28T05:39:55.806Z,21.91
2016-09-28T05:40:21.387Z,21.98
2016-09-28T05:40:46.957Z,21.95
2016-09-28T05:41:12.540Z,21.91
2016-09-28T05:41:38.183Z,21.91
2016-09-28T05:42:03.762Z,21.94
2016-09-28T05:42:29.320Z,21.95
2016-09-28T05:42:54.945Z,21.98
2016-09-28T05:43:20.494Z,21.95
2016-09-28T05:43:46.044Z,21.91
2016-09-28T05:44:11.677Z,21.97
2016-09-28T05:44:37.237Z,21.95
2016-09-28T05:45:02.792Z,21.97
2016-09-28T05:45:28.362Z,21.94
2016-09-28T05:45:53.913Z,21.98
2016-09-28T05:46:19.492Z,21.98
2016-09-28T05:46:45.146Z,21.95
2016-09-28T05:47:10.691Z,21.99
2016-09-28T05:47:36.280Z,21.91
2016-09-28T05:48:01.913Z,21.92
2016-09-28T05:48:27.472Z,21.95
2016-09-28T05:48:53.043Z,21.98
2016-09-28T05:49:18.602Z,21.95
2016-09-28T05:49:44.173Z,22.02
2016-09-28T05:50:09.761Z,21.91
2016-09-28T05:50:35.323Z,21.97
2016-09-28T05:51:00.882Z,21.98
2016-09-28T05:51:26.453Z,21.91
2016-09-28T05:51:52.016Z,21.97
2016-09-28T05:52:17.720Z,21.94
2016-09-28T05:52:43.320Z,21.97
2016-09-28T05:53:08.891Z,21.99
2016-09-28T05:53:34.464Z,21.97
2016-09-28T05:54:00.029Z,21.98
2016-09-28T05:54:25.610Z,21.98
2016-09-28T05:54:51.180Z,21.97
2016-09-28T05:55:16.795Z,21.98
2016-09-28T05:55:42.363Z,22.01
2016-09-28T05:56:07.957Z,22.01
2016-09-28T05:56:33.532Z,21.95
2016-09-28T05:56:59.103Z,21.98
2016-09-28T05:57:24.654Z,21.97
2016-09-28T05:57:50.240Z,22.04
2016-09-28T05:58:15.803Z,21.91
2016-09-28T05:58:41.484Z,21.97
2016-09-28T05:59:07.056Z,22.04
2016-09-28T05:59:32.602Z,21.95
2016-09-28T05:59:58.139Z,21.97
2016-09-28T06:00:23.707Z,21.95
2016-09-28T06:01:31.975Z,21.97
2016-09-28T06:01:57.538Z,21.99
2016-09-28T06:02:23.179Z,21.94
2016-09-28T06:02:49.023Z,21.95
2016-09-28T06:03:14.591Z,21.94
2016-09-28T06:03:40.192Z,21.92
2016-09-28T06:04:05.759Z,21.94
2016-09-28T06:04:31.321Z,21.97
2016-09-28T06:04:56.871Z,21.92
2016-09-28T06:05:22.421Z,21.9
2016-09-28T06:05:48.023Z,21.97
2016-09-28T06:06:13.581Z,21.94
2016-09-28T06:06:39.137Z,22.07
2016-09-28T06:07:04.675Z,21.95
2016-09-28T06:07:30.345Z,21.94
2016-09-28T06:07:55.913Z,22.04
2016-09-28T06:08:21.496Z,22.04
2016-09-28T06:08:47.067Z,22.01
2016-09-28T06:09:12.725Z,22.04
2016-09-28T06:09:38.311Z,22.04
2016-09-28T06:10:03.875Z,22.02
2016-09-28T06:10:29.531Z,22.01
2016-09-28T06:10:55.098Z,22.04
2016-09-28T06:11:20.696Z,22.02
2016-09-28T06:11:46.275Z,22.04
2016-09-28T06:12:11.823Z,22.02
2016-09-28T06:12:37.380Z,22.02
2016-09-28T06:13:02.951Z,22.06
2016-09-28T06:13:28.525Z,21.95
2016-09-28T06:13:54.069Z,22.06
2016-09-28T06:14:19.621Z,22.07
2016-09-28T06:14:45.193Z,22.02
2016-09-28T06:15:10.897Z,22.12
2016-09-28T06:15:36.445Z,22.02
2016-09-28T06:16:02.030Z,22.07
2016-09-28T06:16:27.588Z,22.07
2016-09-28T06:16:53.152Z,22.06
2016-09-28T06:17:18.702Z,22.12
2016-09-28T06:17:44.424Z,22.01
2016-09-28T06:18:09.982Z,22.06
2016-09-28T06:18:35.521Z,22.14
2016-09-28T06:19:01.070Z,22.1
2016-09-28T06:19:26.609Z,22.07
2016-09-28T06:19:52.161Z,22.1
2016-09-28T06:20:17.697Z,22.13
2016-09-28T06:20:43.245Z,22.12
2016-09-28T06:21:08.818Z,22.06
2016-09-28T06:21:34.402Z,22.06
2016-09-28T06:21:59.953Z,22.14
2016-09-28T06:22:25.505Z,22.19
2016-09-28T06:22:51.041Z,22.14
2016-09-28T06:23:16.585Z,22.06
2016-09-28T06:23:42.133Z,22.1
2016-09-28T06:24:07.764Z,22.14
2016-09-28T06:24:33.315Z,22.17
2016-09-28T06:24:58.984Z,22.07
2016-09-28T06:25:24.606Z,22.14
2016-09-28T06:26:17.607Z,22.16
2016-09-28T06:28:24.768Z,22.01
2016-09-28T06:28:50.337Z,22.04
2016-09-28T06:29:15.937Z,22.02
2016-09-28T06:29:41.494Z,22.07
2016-09-28T06:30:29.320Z,22.01
2016-09-28T06:30:54.918Z,22.14
2016-09-28T06:31:20.469Z,22.13
2016-09-28T06:31:46.031Z,22.19
2016-09-28T06:32:11.600Z,22.16
2016-09-28T06:32:37.154Z,22.17
2016-09-28T06:33:02.755Z,22.04
2016-09-28T06:33:28.323Z,22.06
2016-09-28T06:34:31.532Z,22.13
2016-09-28T06:35:24.506Z,22.14
2016-09-28T06:35:50.061Z,22.19
2016-09-28T06:36:15.647Z,22.16
2016-09-28T06:36:41.249Z,22.19
2016-09-28T06:37:06.822Z,22.17
2016-09-28T06:37:32.391Z,22.17
2016-09-28T06:37:58.033Z,22.17
2016-09-28T06:38:23.611Z,22.17
2016-09-28T06:38:49.166Z,22.14
2016-09-28T06:39:14.742Z,22.14
2016-09-28T06:39:40.298Z,22.16
2016-09-28T06:40:05.864Z,22.2
2016-09-28T06:40:31.406Z,22.19
2016-09-28T06:40:56.970Z,22.16
2016-09-28T06:41:22.528Z,22.23
2016-09-28T06:41:48.205Z,22.17
2016-09-28T06:42:13.817Z,22.23
2016-09-28T06:42:39.434Z,22.23
2016-09-28T06:43:05.004Z,22.22
2016-09-28T06:43:30.562Z,22.29
2016-09-28T06:43:56.120Z,22.28
2016-09-28T06:44:21.676Z,22.23
2016-09-28T06:44:47.238Z,22.28
2016-09-28T06:45:12.794Z,22.25
2016-09-28T06:45:38.402Z,22.2
2016-09-28T06:46:03.972Z,22.22
2016-09-28T06:46:29.542Z,22.25
2016-09-28T06:47:27.686Z,22.25
2016-09-28T06:47:53.244Z,22.32
2016-09-28T06:48:18.813Z,22.28
2016-09-28T06:48:44.400Z,22.28
2016-09-28T06:49:10.047Z,22.22
2016-09-28T06:49:35.634Z,22.23
2016-09-28T06:50:01.215Z,22.29
2016-09-28T06:50:26.771Z,22.25
2016-09-28T06:50:52.325Z,22.27
2016-09-28T06:51:17.913Z,22.27
2016-09-28T06:51:43.473Z,22.22
2016-09-28T06:52:09.041Z,22.28
2016-09-28T06:52:34.611Z,22.23
2016-09-28T06:53:00.177Z,22.27
2016-09-28T06:53:25.764Z,22.31
2016-09-28T06:53:51.290Z,22.27
2016-09-28T06:54:16.833Z,22.29
2016-09-28T06:54:42.383Z,22.32
2016-09-28T06:55:07.956Z,22.29
2016-09-28T06:55:33.514Z,22.23
2016-09-28T06:55:59.086Z,22.31
2016-09-28T06:56:24.653Z,22.29
2016-09-28T06:56:50.357Z,22.29
2016-09-28T06:57:15.928Z,22.34
2016-09-28T06:57:41.486Z,22.32
2016-09-28T06:58:07.034Z,22.28
2016-09-28T06:58:32.612Z,22.32
2016-09-28T06:58:58.181Z,22.39
2016-09-28T06:59:23.750Z,22.35
2016-09-28T06:59:49.319Z,22.37
2016-09-28T07:00:14.884Z,22.27
2016-09-28T07:00:40.488Z,22.37
2016-09-28T07:01:06.063Z,22.28
2016-09-28T07:01:31.608Z,22.34
2016-09-28T07:01:57.177Z,22.29
2016-09-28T07:02:22.730Z,22.39
2016-09-28T07:02:48.314Z,22.35
2016-09-28T07:03:13.909Z,22.41
2016-09-28T07:03:39.479Z,22.38
2016-09-28T07:04:32.486Z,22.38
2016-09-28T07:06:47.931Z,22.44
2016-09-28T07:07:13.585Z,22.43
2016-09-28T07:07:39.145Z,22.35
2016-09-28T07:08:04.708Z,22.34
2016-09-28T07:08:30.283Z,22.39
2016-09-28T07:08:55.873Z,22.39
2016-09-28T07:09:21.450Z,22.41
2016-09-28T07:09:46.999Z,22.41
2016-09-28T07:10:12.606Z,22.37
2016-09-28T07:10:38.184Z,22.38
2016-09-28T07:11:03.743Z,22.38
2016-09-28T07:11:29.343Z,22.32
2016-09-28T07:11:54.913Z,22.38
2016-09-28T07:12:20.475Z,22.39
2016-09-28T07:12:46.034Z,22.35
2016-09-28T07:13:11.589Z,22.44
2016-09-28T07:13:37.138Z,22.39
2016-09-28T07:14:02.714Z,22.47
2016-09-28T07:14:28.273Z,22.49
2016-09-28T07:14:53.837Z,22.43
2016-09-28T07:15:19.416Z,22.46
2016-09-28T07:15:44.994Z,22.43
2016-09-28T07:16:10.565Z,22.44
2016-09-28T07:16:36.122Z,22.43
2016-09-28T07:17:01.683Z,22.5
2016-09-28T07:17:27.234Z,22.44
2016-09-28T07:17:52.816Z,22.44
2016-09-28T07:18:18.391Z,22.47
2016-09-28T07:18:43.953Z,22.46
2016-09-28T07:19:09.501Z,22.49
2016-09-28T07:19:35.052Z,22.49
2016-09-28T07:20:00.635Z,22.44
2016-09-28T07:20:26.183Z,22.52
2016-09-28T07:20:51.745Z,22.53
2016-09-28T07:21:17.309Z,22.47
2016-09-28T07:21:42.878Z,22.47
2016-09-28T07:22:08.431Z,22.5
2016-09-28T07:22:34.018Z,22.47
2016-09-28T07:22:59.590Z,22.49
2016-09-28T07:23:25.151Z,22.43
2016-09-28T07:23:50.731Z,22.44
2016-09-28T07:24:16.321Z,22.43
2016-09-28T07:24:42.007Z,22.54
2016-09-28T07:25:07.591Z,22.5
2016-09-28T07:25:33.164Z,22.47
2016-09-28T07:25:58.733Z,22.5
2016-09-28T07:26:24.315Z,22.53
2016-09-28T07:26:49.881Z,22.47
2016-09-28T07:27:15.458Z,22.53
2016-09-28T07:27:41.021Z,22.52
2016-09-28T07:28:06.566Z,22.52
2016-09-28T07:28:32.134Z,22.53
2016-09-28T07:28:57.779Z,22.47
2016-09-28T07:29:23.352Z,22.54
2016-09-28T07:29:48.922Z,22.54
2016-09-28T07:30:14.460Z,22.54
2016-09-28T07:30:40.021Z,22.49
2016-09-28T07:31:05.567Z,22.52
2016-09-28T07:31:31.139Z,22.54
2016-09-28T07:31:56.698Z,22.54
2016-09-28T07:32:22.268Z,22.52
2016-09-28T07:32:47.939Z,22.53
2016-09-28T07:33:13.523Z,22.46
2016-09-28T07:33:39.083Z,22.53
2016-09-28T07:34:04.650Z,22.56
2016-09-28T07:34:30.195Z,22.53
2016-09-28T07:34:55.752Z,22.52
2016-09-28T07:35:21.288Z,22.57
2016-09-28T07:35:46.833Z,22.54
2016-09-28T07:36:12.390Z,22.59
2016-09-28T07:36:38.581Z,22.46
2016-09-28T07:37:04.128Z,22.57
2016-09-28T07:37:29.667Z,22.57
2016-09-28T07:37:55.215Z,22.56
2016-09-28T07:38:20.792Z,22.59
2016-09-28T07:38:46.354Z,22.52
2016-09-28T07:39:12.018Z,22.53
2016-09-28T07:39:37.595Z,22.52
2016-09-28T07:40:03.136Z,22.59
2016-09-28T07:40:28.687Z,22.53
2016-09-28T07:40:54.361Z,22.62
2016-09-28T07:41:19.934Z,22.59
2016-09-28T07:41:45.473Z,22.54
2016-09-28T07:42:11.024Z,22.54
2016-09-28T07:42:36.565Z,22.57
2016-09-28T07:43:02.165Z,22.6
2016-09-28T07:43:27.717Z,22.57
2016-09-28T07:43:53.252Z,22.62
2016-09-28T07:44:18.799Z,22.57
2016-09-28T07:44:44.356Z,22.59
2016-09-28T07:45:09.920Z,22.54
2016-09-28T07:45:35.473Z,22.59
2016-09-28T07:46:33.582Z,22.49
2016-09-28T07:48:49.034Z,22.67
2016-09-28T07:49:14.615Z,22.54
2016-09-28T07:49:40.200Z,22.54
2016-09-28T07:50:05.775Z,22.57
2016-09-28T07:50:31.472Z,22.64
2016-09-28T07:50:57.045Z,22.57
2016-09-28T07:51:22.607Z,22.56
2016-09-28T07:51:48.289Z,22.6
2016-09-28T07:52:13.919Z,22.6
2016-09-28T07:52:39.481Z,22.62
2016-09-28T07:53:05.050Z,22.65
2016-09-28T07:53:30.843Z,22.59
2016-09-28T07:53:56.413Z,22.54
2016-09-28T07:54:22.151Z,22.5
2016-09-28T07:54:47.721Z,22.67
2016-09-28T07:55:13.352Z,22.6
2016-09-28T07:55:38.927Z,22.62
2016-09-28T07:56:04.513Z,22.54
2016-09-28T07:56:30.077Z,22.64
2016-09-28T07:56:55.651Z,22.59
2016-09-28T07:57:21.222Z,22.6
2016-09-28T07:57:46.768Z,22.57
2016-09-28T07:58:34.646Z,22.59
2016-09-28T07:59:00.372Z,22.56
2016-09-28T07:59:25.960Z,22.6
2016-09-28T07:59:51.521Z,22.54
2016-09-28T08:00:17.108Z,22.57
2016-09-28T08:00:42.782Z,22.62
2016-09-28T08:01:08.366Z,22.65
2016-09-28T08:01:33.911Z,22.54
2016-09-28T08:01:59.482Z,22.64
2016-09-28T08:02:25.034Z,22.69
2016-09-28T08:02:50.600Z,22.62
2016-09-28T08:03:16.168Z,22.67
2016-09-28T08:03:41.723Z,22.59
2016-09-28T08:04:07.274Z,22.65
2016-09-28T08:04:32.829Z,22.6
2016-09-28T08:04:58.390Z,22.57
2016-09-28T08:05:23.961Z,22.65
2016-09-28T08:05:49.528Z,22.62
2016-09-28T08:06:15.130Z,22.65
2016-09-28T08:06:40.694Z,22.6
2016-09-28T08:07:06.244Z,22.67
2016-09-28T08:07:31.802Z,22.68
2016-09-28T08:08:24.817Z,22.62
2016-09-28T08:08:50.479Z,22.62
2016-09-28T08:09:16.032Z,22.59
2016-09-28T08:09:41.571Z,22.56
2016-09-28T08:10:07.120Z,22.57
2016-09-28T08:10:32.674Z,22.57
2016-09-28T08:10:58.238Z,22.54
2016-09-28T08:11:23.797Z,22.59
2016-09-28T08:11:49.371Z,22.65
2016-09-28T08:12:15.010Z,22.65
2016-09-28T08:12:40.589Z,22.59
2016-09-28T08:13:06.155Z,22.62
2016-09-28T08:13:31.834Z,22.54
2016-09-28T08:13:57.418Z,22.67
2016-09-28T08:14:22.989Z,22.59
2016-09-28T08:14:48.553Z,22.64
2016-09-28T08:15:14.118Z,22.57
2016-09-28T08:15:39.764Z,22.62
2016-09-28T08:16:27.865Z,22.67
2016-09-28T08:16:53.474Z,22.53
2016-09-28T08:17:19.042Z,22.57
2016-09-28T08:17:44.612Z,22.53
2016-09-28T08:18:10.162Z,22.65
2016-09-28T08:18:35.822Z,22.67
2016-09-28T08:19:01.463Z,22.53
2016-09-28T08:19:27.026Z,22.56
2016-09-28T08:19:52.581Z,22.67
2016-09-28T08:20:18.139Z,22.59
2016-09-28T08:20:43.698Z,22.67
2016-09-28T08:21:09.291Z,22.69
2016-09-28T08:21:34.848Z,22.68
2016-09-28T08:22:00.431Z,22.67
2016-09-28T08:22:25.985Z,22.68
2016-09-28T08:22:51.546Z,22.71
2016-09-28T08:23:17.239Z,22.62
2016-09-28T08:23:42.791Z,22.69
2016-09-28T08:24:08.352Z,22.69
2016-09-28T08:24:33.914Z,22.68
2016-09-28T08:24:59.502Z,22.75
2016-09-28T08:25:25.065Z,22.75
2016-09-28T08:25:50.634Z,22.67
2016-09-28T08:26:16.201Z,22.68
2016-09-28T08:26:41.828Z,22.71
2016-09-28T08:27:29.716Z,22.74
2016-09-28T08:27:55.272Z,22.68
2016-09-28T08:28:20.830Z,22.62
2016-09-28T08:28:46.380Z,22.72
2016-09-28T08:29:12.041Z,22.64
2016-09-28T08:29:37.599Z,22.57
2016-09-28T08:30:03.183Z,22.72
2016-09-28T08:30:28.738Z,22.69
2016-09-28T08:30:54.407Z,22.69
2016-09-28T08:31:20.007Z,22.74
2016-09-28T08:31:45.640Z,22.68
2016-09-28T08:32:11.199Z,22.68
2016-09-28T08:32:36.834Z,22.64
2016-09-28T08:33:02.391Z,22.65
2016-09-28T08:33:27.993Z,22.69
2016-09-28T08:33:53.575Z,22.71
2016-09-28T08:34:19.152Z,22.69
2016-09-28T08:34:44.728Z,22.65
2016-09-28T08:35:10.306Z,22.69
2016-09-28T08:35:35.869Z,22.64
2016-09-28T08:36:01.433Z,22.67
2016-09-28T08:36:26.991Z,22.65
2016-09-28T08:36:52.551Z,22.69
2016-09-28T08:37:18.105Z,22.77
2016-09-28T08:37:43.669Z,22.77
2016-09-28T08:38:09.229Z,22.69
2016-09-28T08:38:34.808Z,22.74
2016-09-28T08:39:32.910Z,22.75
2016-09-28T08:39:58.473Z,22.75
2016-09-28T08:40:24.032Z,22.64
2016-09-28T08:40:49.602Z,22.67
2016-09-28T08:41:15.165Z,22.64
2016-09-28T08:41:40.727Z,22.68
2016-09-28T08:42:06.440Z,22.67
2016-09-28T08:42:32.010Z,22.77
2016-09-28T08:42:57.563Z,22.74
2016-09-28T08:43:23.160Z,22.77
2016-09-28T08:43:48.726Z,22.67
2016-09-28T08:44:14.287Z,22.82
2016-09-28T08:44:39.852Z,22.69
2016-09-28T08:45:05.504Z,22.68
2016-09-28T08:45:31.078Z,22.74
2016-09-28T08:45:56.663Z,22.74
2016-09-28T08:46:22.202Z,22.74
2016-09-28T08:46:47.754Z,22.71
2016-09-28T08:47:13.354Z,22.74
2016-09-28T08:47:38.943Z,22.74
2016-09-28T08:48:04.515Z,22.77
2016-09-28T08:48:30.085Z,22.78
2016-09-28T08:48:55.644Z,22.78
2016-09-28T08:49:21.203Z,22.75
2016-09-28T08:49:46.766Z,22.68
2016-09-28T08:50:12.316Z,22.67
2016-09-28T08:50:37.888Z,22.71
2016-09-28T08:51:03.556Z,22.75
2016-09-28T08:51:29.115Z,22.72
2016-09-28T08:51:54.691Z,22.75
2016-09-28T08:52:20.353Z,22.74
2016-09-28T08:52:45.942Z,22.75
2016-09-28T08:53:11.494Z,22.75
2016-09-28T08:53:37.058Z,22.71
2016-09-28T08:54:02.639Z,22.74
2016-09-28T08:54:28.216Z,22.69
2016-09-28T08:54:53.785Z,22.75
2016-09-28T08:55:19.341Z,22.72
2016-09-28T08:55:44.958Z,22.72
2016-09-28T08:56:10.537Z,22.82
2016-09-28T08:56:36.122Z,22.75
2016-09-28T08:57:01.689Z,22.74
2016-09-28T08:57:27.277Z,22.8
2016-09-28T08:57:52.933Z,22.74
2016-09-28T08:58:18.517Z,22.77
2016-09-28T08:58:44.134Z,22.75
2016-09-28T08:59:09.743Z,22.74
2016-09-28T08:59:35.324Z,22.78
2016-09-28T09:00:00.880Z,22.77
2016-09-28T09:00:26.442Z,22.82
2016-09-28T09:00:52.008Z,22.78
2016-09-28T09:01:17.593Z,22.77
2016-09-28T09:01:43.168Z,22.77
2016-09-28T09:02:08.731Z,22.78
2016-09-28T09:02:34.292Z,22.74
2016-09-28T09:02:59.857Z,22.75
2016-09-28T09:03:25.431Z,22.75
2016-09-28T09:03:51.062Z,22.74
2016-09-28T09:04:16.569Z,22.77
2016-09-28T09:04:42.116Z,22.78
2016-09-28T09:05:07.681Z,22.74
2016-09-28T09:05:33.254Z,22.83
2016-09-28T09:05:58.823Z,22.75